UNOO 200530Z 23004MPS CAVOK 22/13 Q0999 R25/CLRD60 NOSIG RMK QFE741
QNH:(hPa/inHg/mmHg)999 / 29.5 / 749
QFE:(hPa/inHg/mmHg)987 / 29.16 / 741
Temperature22
Dew Point13
Visibility> 10000
WeatherCAVOK
Cloud Cover
Transition Height900 m./3300 ft.
Transition LevelFL50
SQUAWK